createdAt,value
2018-07-10T00:00:36.611Z,89.28
2018-07-10T00:05:21.475Z,89.32
2018-07-10T00:12:08.806Z,88.95
2018-07-10T00:14:37.530Z,90.09
2018-07-10T00:17:05.961Z,92.29
2018-07-10T00:19:34.452Z,89.70
2018-07-10T00:22:02.924Z,88.89
2018-07-10T00:24:31.414Z,88.48
2018-07-10T00:26:59.843Z,90.45
2018-07-10T00:29:28.316Z,90.04
2018-07-10T00:31:57.032Z,97.11
2018-07-10T00:34:25.471Z,99.46
2018-07-10T00:36:53.935Z,100.00
2018-07-10T00:39:22.426Z,100.00
2018-07-10T00:41:50.914Z,100.00
2018-07-10T00:44:19.387Z,99.88
2018-07-10T00:46:47.903Z,100.00
2018-07-10T00:49:16.611Z,100.00
2018-07-10T00:51:45.143Z,99.40
2018-07-10T00:54:13.707Z,100.00
2018-07-10T00:56:42.199Z,100.00
2018-07-10T00:59:10.736Z,99.36
2018-07-10T01:01:39.255Z,99.22
2018-07-10T01:04:07.759Z,100.00
2018-07-10T01:07:38.785Z,100.00
2018-07-10T01:10:07.264Z,100.00
2018-07-10T01:12:35.755Z,100.00
2018-07-10T01:15:04.193Z,100.00
2018-07-10T01:17:32.841Z,100.00
2018-07-10T01:20:01.393Z,100.00
2018-07-10T01:22:29.871Z,100.00
2018-07-10T01:24:58.370Z,100.00
2018-07-10T01:27:27.159Z,100.00
2018-07-10T01:29:55.652Z,100.00
2018-07-10T01:32:24.141Z,100.00
2018-07-10T01:34:52.630Z,100.00
2018-07-10T01:37:21.130Z,100.00
2018-07-10T01:39:49.828Z,100.00
2018-07-10T01:42:18.311Z,100.00
2018-07-10T01:44:46.889Z,100.00
2018-07-10T01:47:15.443Z,100.00
2018-07-10T01:49:43.943Z,100.00
2018-07-10T01:52:12.454Z,100.00
2018-07-10T01:54:40.931Z,100.00
2018-07-10T01:57:09.404Z,100.00
2018-07-10T01:59:38.005Z,100.00
2018-07-10T02:02:06.476Z,100.00
2018-07-10T02:04:34.989Z,100.00
2018-07-10T02:07:03.549Z,100.00
2018-07-10T02:09:31.983Z,100.00
2018-07-10T02:12:00.495Z,100.00
2018-07-10T02:14:28.951Z,100.00
2018-07-10T02:16:57.424Z,100.00
2018-07-10T02:19:25.939Z,100.00
2018-07-10T02:21:54.804Z,100.00
2018-07-10T02:24:25.027Z,100.00
2018-07-10T02:26:54.378Z,100.00
2018-07-10T02:29:22.883Z,100.00
2018-07-10T02:31:51.365Z,100.00
2018-07-10T02:34:19.885Z,100.00
2018-07-10T02:36:48.392Z,100.00
2018-07-10T02:39:17.295Z,98.50
2018-07-10T02:41:45.764Z,96.34
2018-07-10T02:44:14.276Z,97.46
2018-07-10T02:46:42.833Z,97.97
2018-07-10T02:49:16.523Z,97.91
2018-07-10T02:51:56.470Z,100.00
2018-07-10T02:54:27.096Z,100.00
2018-07-10T02:56:57.169Z,100.00
2018-07-10T02:59:35.667Z,98.04
2018-07-10T03:02:05.654Z,93.58
2018-07-10T03:04:35.627Z,94.21
2018-07-10T03:07:04.548Z,100.00
2018-07-10T03:09:33.480Z,100.00
2018-07-10T03:12:03.487Z,100.00
2018-07-10T03:14:32.017Z,100.00
2018-07-10T03:17:01.319Z,100.00
2018-07-10T03:19:30.046Z,100.00
2018-07-10T03:21:58.539Z,99.68
2018-07-10T03:24:27.016Z,97.43
2018-07-10T03:26:55.571Z,96.93
2018-07-10T03:29:24.496Z,95.18
2018-07-10T03:31:54.059Z,95.78
2018-07-10T03:34:22.770Z,94.07
2018-07-10T03:36:51.525Z,94.77
2018-07-10T03:39:20.023Z,91.73
2018-07-10T03:41:48.520Z,95.47
2018-07-10T03:44:18.152Z,95.65
2018-07-10T03:46:46.648Z,100.00
2018-07-10T03:49:15.138Z,100.00
2018-07-10T03:51:43.675Z,100.00
2018-07-10T03:54:12.166Z,100.00
2018-07-10T03:56:40.612Z,100.00
2018-07-10T03:59:09.247Z,96.77
2018-07-10T04:01:38.334Z,97.79
2018-07-10T04:04:07.174Z,95.26
2018-07-10T04:06:36.047Z,97.06
2018-07-10T04:09:07.183Z,96.78
2018-07-10T04:11:36.607Z,94.94
2018-07-10T04:14:05.744Z,93.54
2018-07-10T04:16:34.251Z,97.79
2018-07-10T04:19:02.760Z,100.00
2018-07-10T04:21:34.285Z,100.00
2018-07-10T04:24:13.445Z,100.00
2018-07-10T04:26:54.820Z,100.00
2018-07-10T04:29:39.919Z,100.00
2018-07-10T04:32:10.094Z,100.00
2018-07-10T04:34:38.600Z,100.00
2018-07-10T04:37:12.283Z,100.00
2018-07-10T04:39:42.425Z,100.00
2018-07-10T04:42:23.674Z,100.00
2018-07-10T04:45:12.397Z,99.42
2018-07-10T04:47:52.184Z,100.00
2018-07-10T04:50:56.544Z,100.00
2018-07-10T04:53:31.843Z,100.00
2018-07-10T04:56:00.652Z,97.18
2018-07-10T04:58:29.168Z,94.49
2018-07-10T05:01:02.137Z,94.25
2018-07-10T05:03:31.596Z,94.45
2018-07-10T05:06:03.858Z,94.58
2018-07-10T05:08:32.659Z,94.52
2018-07-10T05:11:01.572Z,97.68
2018-07-10T05:13:30.140Z,97.35
2018-07-10T05:16:04.558Z,93.14
2018-07-10T05:18:34.470Z,93.46
2018-07-10T05:21:08.897Z,94.90
2018-07-10T05:23:37.383Z,98.09
2018-07-10T05:26:06.544Z,94.07
2018-07-10T05:28:35.044Z,92.26
2018-07-10T05:31:04.984Z,94.08
2018-07-10T05:33:34.673Z,91.82
2018-07-10T05:36:04.117Z,92.06
2018-07-10T05:38:37.659Z,92.96
2018-07-10T05:41:06.836Z,91.52
2018-07-10T05:43:44.780Z,93.64
2018-07-10T05:46:13.295Z,92.85
2018-07-10T05:48:53.755Z,92.00
2018-07-10T05:51:23.317Z,89.40
2018-07-10T05:53:51.805Z,94.63
2018-07-10T05:56:20.308Z,100.00
2018-07-10T05:58:48.774Z,97.12
2018-07-10T06:01:17.265Z,100.00
2018-07-10T06:03:45.731Z,100.00
2018-07-10T06:06:14.208Z,96.65
2018-07-10T06:08:42.708Z,94.17
2018-07-10T06:11:11.231Z,96.09
2018-07-10T06:13:39.707Z,98.15
2018-07-10T06:16:08.203Z,98.11
2018-07-10T06:18:36.642Z,95.85
2018-07-10T06:21:05.292Z,96.31
2018-07-10T06:23:39.812Z,91.55
2018-07-10T06:26:14.568Z,89.54
2018-07-10T06:29:05.038Z,88.35
2018-07-10T06:31:41.738Z,85.47
2018-07-10T06:34:10.492Z,84.64
2018-07-10T06:36:52.037Z,89.73
2018-07-10T06:39:20.551Z,87.88
2018-07-10T06:41:51.503Z,90.44
2018-07-10T06:44:21.008Z,89.77
2018-07-10T06:46:55.155Z,89.67
2018-07-10T06:49:36.647Z,85.42
2018-07-10T06:52:07.524Z,84.07
2018-07-10T06:55:10.685Z,83.65
2018-07-10T06:57:40.672Z,82.04
2018-07-10T07:02:46.185Z,83.73
2018-07-10T07:05:14.681Z,83.46
2018-07-10T07:07:43.514Z,83.63
2018-07-10T07:10:13.302Z,90.79
2018-07-10T07:12:42.754Z,88.66
2018-07-10T07:15:21.174Z,85.08
2018-07-10T07:17:51.554Z,82.30
2018-07-10T07:20:21.536Z,82.37
2018-07-10T07:22:50.836Z,80.24
2018-07-10T07:25:19.328Z,79.95
2018-07-10T07:27:48.069Z,76.88
2018-07-10T07:30:16.556Z,77.56
2018-07-10T07:32:45.271Z,77.64
2018-07-10T07:35:13.781Z,77.23
2018-07-10T07:37:42.456Z,77.79
2018-07-10T07:40:11.646Z,79.88
2018-07-10T07:42:41.040Z,78.87
2018-07-10T07:45:09.681Z,81.32
2018-07-10T07:47:38.321Z,75.48
2018-07-10T07:50:06.798Z,76.50
2018-07-10T07:52:35.384Z,75.58
2018-07-10T07:55:04.457Z,78.95
2018-07-10T07:57:33.508Z,77.13
2018-07-10T08:00:01.937Z,77.28
2018-07-10T08:02:30.883Z,75.53
2018-07-10T08:04:59.345Z,76.46
2018-07-10T08:07:27.980Z,73.86
2018-07-10T08:09:57.837Z,74.83
2018-07-10T08:12:27.803Z,77.05
2018-07-10T08:14:56.332Z,80.42
2018-07-10T08:17:25.879Z,78.91
2018-07-10T08:19:56.679Z,74.76
2018-07-10T08:22:25.932Z,77.21
2018-07-10T08:24:54.839Z,79.63
2018-07-10T08:27:24.984Z,75.81
2018-07-10T08:29:54.191Z,77.42
2018-07-10T08:32:22.660Z,76.00
2018-07-10T08:34:51.395Z,72.75
2018-07-10T08:37:19.843Z,71.61
2018-07-10T08:39:48.696Z,71.58
2018-07-10T08:42:17.173Z,72.51
2018-07-10T08:44:45.695Z,71.48
2018-07-10T08:47:14.300Z,71.42
2018-07-10T08:49:42.905Z,71.35
2018-07-10T08:52:12.676Z,72.26
2018-07-10T08:54:41.682Z,69.53
2018-07-10T08:57:10.164Z,68.51
2018-07-10T08:59:39.163Z,66.69
2018-07-10T09:02:07.678Z,68.97
2018-07-10T09:04:36.170Z,66.94
2018-07-10T09:07:05.582Z,68.55
2018-07-10T09:09:35.478Z,66.73
2018-07-10T09:12:04.255Z,64.66
2018-07-10T09:14:32.714Z,65.38
2018-07-10T09:17:01.178Z,64.25
2018-07-10T09:19:31.407Z,64.91
2018-07-10T09:22:07.229Z,68.84
2018-07-10T09:24:37.684Z,67.62
2018-07-10T09:27:08.999Z,67.72
2018-07-10T09:29:39.091Z,68.23
2018-07-10T09:32:08.843Z,65.96
2018-07-10T09:34:37.356Z,65.75
2018-07-10T09:37:10.248Z,62.29
2018-07-10T09:39:38.720Z,64.50
2018-07-10T09:42:07.669Z,64.25
2018-07-10T09:44:39.224Z,64.37
2018-07-10T09:47:07.736Z,66.94
2018-07-10T09:49:36.276Z,66.45
2018-07-10T09:52:04.805Z,66.44
2018-07-10T09:54:33.395Z,69.17
2018-07-10T09:57:02.310Z,68.18
2018-07-10T09:59:31.383Z,66.51
2018-07-10T10:02:05.331Z,69.21
2018-07-10T10:04:33.812Z,70.14
2018-07-10T10:08:05.102Z,70.30
2018-07-10T10:10:33.571Z,71.69
2018-07-10T10:13:02.094Z,72.20
2018-07-10T10:15:32.919Z,70.10
2018-07-10T10:18:03.566Z,71.62
2018-07-10T10:20:32.211Z,71.62
2018-07-10T10:23:02.644Z,68.78
2018-07-10T10:25:33.653Z,68.25
2018-07-10T10:28:03.592Z,66.30
2018-07-10T10:30:32.170Z,65.61
2018-07-10T10:33:00.635Z,64.47
2018-07-10T10:35:29.728Z,63.23
2018-07-10T10:38:00.061Z,64.17
2018-07-10T10:40:29.112Z,63.70
2018-07-10T10:42:58.055Z,62.67
2018-07-10T10:45:26.943Z,63.81
2018-07-10T10:47:55.421Z,61.64
2018-07-10T10:50:23.884Z,61.71
2018-07-10T10:52:52.363Z,65.34
2018-07-10T10:55:20.815Z,66.90
2018-07-10T10:57:49.356Z,67.58
2018-07-10T11:00:17.809Z,70.22
2018-07-10T11:02:46.387Z,69.37
2018-07-10T11:05:14.799Z,73.49
2018-07-10T11:07:43.290Z,71.18
2018-07-10T11:10:11.768Z,72.41
2018-07-10T11:12:40.240Z,73.61
2018-07-10T11:15:08.689Z,74.88
2018-07-10T11:17:46.176Z,72.07
2018-07-10T11:20:24.291Z,72.95
2018-07-10T11:23:02.576Z,69.97
2018-07-10T11:25:36.767Z,66.50
2018-07-10T11:28:06.633Z,61.26
2018-07-10T11:30:35.537Z,59.68
2018-07-10T11:33:05.256Z,57.89
2018-07-10T11:35:34.396Z,61.19
2018-07-10T11:38:08.399Z,61.69
2018-07-10T11:40:38.179Z,60.68
2018-07-10T11:43:09.591Z,61.01
2018-07-10T11:45:38.629Z,60.39
2018-07-10T11:48:07.261Z,61.27
2018-07-10T11:50:35.756Z,59.15
2018-07-10T11:53:04.247Z,61.63
2018-07-10T11:55:32.983Z,64.52
2018-07-10T11:58:02.173Z,64.40
2018-07-10T12:00:30.659Z,64.67
2018-07-10T12:02:59.261Z,61.15
2018-07-10T12:05:32.152Z,63.71
2018-07-10T12:08:00.656Z,57.51
2018-07-10T12:10:30.924Z,52.97
2018-07-10T12:12:59.373Z,53.38
2018-07-10T12:15:27.792Z,56.81
2018-07-10T12:17:57.591Z,53.32
2018-07-10T12:20:31.160Z,56.58
2018-07-10T12:23:00.552Z,57.94
2018-07-10T12:25:32.660Z,61.78
2018-07-10T12:28:01.195Z,55.43
2018-07-10T12:30:29.727Z,52.37
2018-07-10T12:32:58.155Z,51.62
2018-07-10T12:35:26.626Z,52.72
2018-07-10T12:37:55.091Z,52.83
2018-07-10T12:40:23.598Z,58.76
2018-07-10T12:42:52.920Z,58.15
2018-07-10T12:45:21.581Z,58.10
2018-07-10T12:47:50.240Z,60.24
2018-07-10T12:50:19.155Z,57.04
2018-07-10T12:52:47.635Z,56.45
2018-07-10T12:55:16.133Z,55.02
2018-07-10T12:57:46.259Z,51.80
2018-07-10T13:00:15.458Z,51.93
2018-07-10T13:02:49.592Z,46.84
2018-07-10T13:05:19.459Z,49.72
2018-07-10T13:07:47.955Z,44.81
2018-07-10T13:10:16.921Z,46.09
2018-07-10T13:12:45.735Z,46.98
2018-07-10T13:15:14.465Z,49.10
2018-07-10T13:17:46.447Z,51.29
2018-07-10T13:20:16.247Z,47.21
2018-07-10T13:22:44.698Z,46.98
2018-07-10T13:25:13.229Z,49.65
2018-07-10T13:27:41.764Z,53.32
2018-07-10T13:30:10.219Z,55.19
2018-07-10T13:32:39.090Z,55.30
2018-07-10T13:36:10.465Z,53.85
2018-07-10T13:38:38.924Z,54.75
2018-07-10T13:41:08.213Z,53.71
2018-07-10T13:43:36.705Z,51.83
2018-07-10T13:46:05.171Z,52.93
2018-07-10T13:48:33.618Z,54.46
2018-07-10T13:51:02.085Z,56.58
2018-07-10T13:53:30.548Z,58.94
2018-07-10T13:55:59.078Z,62.29
2018-07-10T13:58:32.802Z,61.54
2018-07-10T14:01:05.402Z,64.58
2018-07-10T14:03:34.627Z,63.67
2018-07-10T14:06:03.626Z,64.04
2018-07-10T14:08:32.677Z,64.47
2018-07-10T14:11:01.464Z,65.36
2018-07-10T14:13:29.983Z,67.07
2018-07-10T14:15:58.719Z,73.12
2018-07-10T14:18:28.160Z,81.92
2018-07-10T14:21:04.452Z,95.20
2018-07-10T14:23:32.965Z,100.00
2018-07-10T14:26:01.476Z,100.00
2018-07-10T14:28:29.924Z,100.00
2018-07-10T14:30:58.807Z,100.00
2018-07-10T14:33:27.267Z,100.00
2018-07-10T14:35:56.160Z,98.69
2018-07-10T14:38:29.874Z,99.00
2018-07-10T14:41:03.553Z,99.83
2018-07-10T14:43:34.264Z,94.07
2018-07-10T14:46:20.361Z,91.92
2018-07-10T14:48:51.589Z,92.18
2018-07-10T14:51:22.621Z,92.83
2018-07-10T14:53:51.148Z,94.61
2018-07-10T14:56:19.856Z,94.27
2018-07-10T14:58:48.534Z,92.75
2018-07-10T15:01:17.016Z,91.95
2018-07-10T15:03:45.500Z,90.87
2018-07-10T15:06:14.093Z,89.25
2018-07-10T15:08:42.603Z,86.24
2018-07-10T15:13:57.524Z,88.44
2018-07-10T15:16:26.732Z,88.63
2018-07-10T15:18:55.180Z,83.70
2018-07-10T15:21:24.580Z,92.08
2018-07-10T15:23:53.011Z,92.70
2018-07-10T15:26:21.719Z,90.48
2018-07-10T15:28:50.826Z,92.61
2018-07-10T15:31:19.307Z,91.65
2018-07-10T15:33:47.865Z,89.23
2018-07-10T15:36:16.364Z,87.13
2018-07-10T15:38:45.161Z,86.60
2018-07-10T15:41:13.790Z,85.20
2018-07-10T15:43:42.239Z,85.08
2018-07-10T15:46:10.699Z,85.71
2018-07-10T15:48:39.165Z,83.66
2018-07-10T15:51:07.933Z,83.37
2018-07-10T15:53:36.537Z,81.13
2018-07-10T15:56:05.437Z,78.84
2018-07-10T15:58:34.258Z,76.40
2018-07-10T16:01:03.068Z,74.73
2018-07-10T16:03:31.512Z,73.32
2018-07-10T16:06:00.452Z,71.65
2018-07-10T16:08:28.959Z,75.78
2018-07-10T16:11:02.448Z,71.81
2018-07-10T16:13:41.163Z,74.52
2018-07-10T16:16:12.707Z,69.81
2018-07-10T16:19:15.117Z,67.82
2018-07-10T16:21:49.100Z,63.52
2018-07-10T16:24:18.115Z,61.08
2018-07-10T16:26:46.950Z,62.91
2018-07-10T16:29:20.754Z,64.09
2018-07-10T16:31:50.974Z,67.67
2018-07-10T16:34:19.502Z,71.73
2018-07-10T16:36:48.158Z,70.72
2018-07-10T16:39:17.012Z,63.37
2018-07-10T16:41:50.720Z,55.79
2018-07-10T16:44:19.266Z,52.27
2018-07-10T16:46:55.344Z,55.09
2018-07-10T16:49:28.728Z,54.56
2018-07-10T16:52:17.251Z,49.20
2018-07-10T16:54:46.151Z,54.62
2018-07-10T16:57:14.932Z,55.58
2018-07-10T16:59:43.703Z,52.07
2018-07-10T17:02:12.209Z,58.51
2018-07-10T17:04:41.067Z,64.01
2018-07-10T17:07:09.526Z,66.67
2018-07-10T17:09:38.073Z,66.91
2018-07-10T17:12:07.659Z,67.96
2018-07-10T17:14:36.090Z,70.96
2018-07-10T17:17:08.763Z,74.00
2018-07-10T17:19:37.184Z,75.85
2018-07-10T17:22:06.197Z,77.96
2018-07-10T17:24:35.460Z,80.30
2018-07-10T17:27:03.998Z,81.10
2018-07-10T17:29:32.524Z,77.06
2018-07-10T17:32:01.009Z,79.01
2018-07-10T17:34:29.519Z,79.84
2018-07-10T17:36:58.125Z,79.69
2018-07-10T17:39:27.152Z,80.55
2018-07-10T17:41:55.753Z,81.19
2018-07-10T17:44:24.172Z,83.44
2018-07-10T17:46:52.656Z,84.23
2018-07-10T17:49:21.451Z,83.85
2018-07-10T17:51:49.985Z,86.57
2018-07-10T17:54:18.499Z,88.14
2018-07-10T17:56:46.965Z,87.23
2018-07-10T17:59:15.573Z,88.55
2018-07-10T18:01:44.019Z,86.11
2018-07-10T18:04:12.510Z,89.01
2018-07-10T18:06:41.268Z,84.96
2018-07-10T18:09:10.485Z,86.14
2018-07-10T18:11:39.030Z,83.41
2018-07-10T18:14:07.747Z,84.85
2018-07-10T18:16:36.971Z,87.11
2018-07-10T18:19:06.204Z,88.96
2018-07-10T18:21:36.052Z,90.29
2018-07-10T18:24:05.136Z,87.37
2018-07-10T18:26:33.901Z,89.94
2018-07-10T18:29:02.551Z,90.30
2018-07-10T18:31:31.251Z,91.46
2018-07-10T18:34:00.037Z,96.34
2018-07-10T18:36:28.983Z,100.00
2018-07-10T18:38:57.432Z,100.00
2018-07-10T18:41:25.948Z,100.00
2018-07-10T18:43:54.566Z,100.00
2018-07-10T18:46:23.074Z,100.00
2018-07-10T18:48:51.548Z,100.00
2018-07-10T18:51:20.832Z,100.00
2018-07-10T18:53:49.857Z,100.00
2018-07-10T18:56:18.587Z,100.00
2018-07-10T18:59:00.276Z,100.00
2018-07-10T19:01:41.424Z,100.00
2018-07-10T19:04:10.098Z,100.00
2018-07-10T19:06:38.594Z,100.00
2018-07-10T19:09:07.132Z,100.00
2018-07-10T19:11:36.016Z,100.00
2018-07-10T19:14:04.730Z,100.00
2018-07-10T19:16:33.228Z,100.00
2018-07-10T19:19:04.102Z,100.00
2018-07-10T19:21:37.896Z,100.00
2018-07-10T19:24:16.203Z,100.00
2018-07-10T19:26:45.178Z,100.00
2018-07-10T19:29:46.839Z,100.00
2018-07-10T19:32:16.054Z,100.00
2018-07-10T19:34:44.898Z,100.00
2018-07-10T19:37:13.417Z,100.00
2018-07-10T19:39:41.928Z,100.00
2018-07-10T19:42:10.475Z,100.00
2018-07-10T19:44:39.235Z,100.00
2018-07-10T19:47:07.744Z,100.00
2018-07-10T19:49:37.517Z,100.00
2018-07-10T19:52:06.087Z,100.00
2018-07-10T19:54:35.656Z,100.00
2018-07-10T19:57:05.395Z,100.00
2018-07-10T19:59:34.341Z,100.00
2018-07-10T20:02:04.211Z,100.00
2018-07-10T20:04:48.395Z,100.00
2018-07-10T20:07:28.732Z,100.00
2018-07-10T20:10:00.797Z,100.00
2018-07-10T20:12:36.272Z,100.00
2018-07-10T20:15:14.243Z,100.00
2018-07-10T20:17:56.078Z,100.00
2018-07-10T20:20:28.244Z,100.00
2018-07-10T20:23:16.666Z,100.00
2018-07-10T20:25:55.602Z,100.00
2018-07-10T20:28:30.426Z,100.00
2018-07-10T20:31:07.950Z,100.00
2018-07-10T20:34:46.152Z,100.00
2018-07-10T20:37:22.751Z,100.00
2018-07-10T20:39:51.640Z,100.00
2018-07-10T20:42:20.311Z,100.00
2018-07-10T20:44:58.817Z,100.00
2018-07-10T20:47:29.867Z,100.00
2018-07-10T20:50:04.369Z,100.00
2018-07-10T20:52:49.367Z,100.00
2018-07-10T20:55:18.017Z,100.00
2018-07-10T20:57:59.432Z,100.00
2018-07-10T21:00:31.801Z,100.00
2018-07-10T21:03:14.470Z,100.00
2018-07-10T21:05:48.070Z,100.00
2018-07-10T21:08:56.225Z,100.00
2018-07-10T21:11:30.579Z,100.00
2018-07-10T21:14:07.944Z,100.00
2018-07-10T21:16:46.154Z,100.00
2018-07-10T21:19:27.087Z,100.00
2018-07-10T21:24:08.071Z,100.00
2018-07-10T21:26:47.753Z,100.00
2018-07-10T21:29:22.971Z,100.00
2018-07-10T21:32:10.156Z,100.00
2018-07-10T21:34:49.204Z,100.00
2018-07-10T21:37:54.171Z,100.00
2018-07-10T21:40:36.570Z,100.00
2018-07-10T21:43:14.747Z,100.00
2018-07-10T21:46:02.600Z,100.00
2018-07-10T21:48:41.979Z,100.00
2018-07-10T21:51:10.653Z,100.00
2018-07-10T21:53:39.782Z,100.00
2018-07-10T21:56:09.363Z,100.00
2018-07-10T21:58:39.104Z,100.00
2018-07-10T22:01:44.947Z,100.00
2018-07-10T22:04:17.978Z,100.00
2018-07-10T22:06:49.787Z,100.00
2018-07-10T22:09:19.136Z,100.00
2018-07-10T22:11:48.255Z,100.00
2018-07-10T22:14:17.563Z,100.00
2018-07-10T22:16:46.427Z,100.00
2018-07-10T22:19:19.290Z,100.00
2018-07-10T22:21:47.780Z,100.00
2018-07-10T22:24:16.560Z,100.00
2018-07-10T22:26:45.166Z,100.00
2018-07-10T22:29:13.634Z,100.00
2018-07-10T22:31:47.389Z,100.00
2018-07-10T22:34:16.412Z,100.00
2018-07-10T22:36:44.953Z,100.00
2018-07-10T22:39:13.902Z,100.00
2018-07-10T22:41:42.486Z,100.00
2018-07-10T22:44:10.950Z,100.00
2018-07-10T22:46:39.491Z,100.00
2018-07-10T22:49:10.696Z,100.00
2018-07-10T22:51:39.268Z,100.00
2018-07-10T22:54:07.828Z,100.00
2018-07-10T22:56:37.324Z,100.00
2018-07-10T22:59:05.844Z,100.00
2018-07-10T23:01:36.546Z,100.00
2018-07-10T23:04:05.059Z,100.00
2018-07-10T23:06:34.876Z,100.00
2018-07-10T23:09:03.755Z,100.00
2018-07-10T23:11:32.233Z,100.00
2018-07-10T23:14:00.784Z,100.00
2018-07-10T23:16:29.787Z,100.00
2018-07-10T23:18:58.501Z,100.00
2018-07-10T23:21:27.124Z,100.00
2018-07-10T23:23:55.757Z,100.00
2018-07-10T23:26:24.266Z,100.00
2018-07-10T23:28:54.207Z,100.00
2018-07-10T23:31:27.154Z,100.00
2018-07-10T23:34:26.372Z,100.00
2018-07-10T23:37:00.153Z,100.00
2018-07-10T23:39:43.700Z,100.00
2018-07-10T23:42:19.416Z,100.00
2018-07-10T23:44:48.314Z,100.00
2018-07-10T23:47:28.349Z,100.00
2018-07-10T23:50:07.494Z,100.00
2018-07-10T23:53:54.321Z,100.00
2018-07-10T23:56:23.863Z,100.00
2018-07-10T23:58:52.445Z,100.00
